Time;durP1;ratioP1;P1;durP2;ratioP2;P2;SDS_P1;SDS_P2;PMS_P1;PMS_P2;Temp;Humidity;BMP_temperature;BMP_pressure;BME280_temperature;BME280_humidity;BME280_pressure;Samples;Min_cycle;Max_cycle;Signal;HPM_P1;HPM_P2
2024/03/06 00:00:27;;;;;;;0.70;0.70;;;8.60;99.90;;;;;;10535278;28;20227;-75
2024/03/06 00:05:29;;;;;;;0.40;0.40;;;8.70;99.90;;;;;;10505964;28;20278;-75
2024/03/06 00:10:33;;;;;;;0.50;0.50;;;8.70;99.90;;;;;;10497687;28;20208;-75
2024/03/06 00:15:36;;;;;;;0.40;0.40;;;8.70;99.90;;;;;;10519575;28;20192;-75
2024/03/06 00:20:40;;;;;;;0.60;0.60;;;8.70;99.90;;;;;;10537229;28;20211;-76
2024/03/06 00:25:47;;;;;;;0.70;0.70;;;8.80;99.90;;;;;;10512376;28;20615;-76
2024/03/06 00:30:50;;;;;;;0.40;0.40;;;8.80;99.90;;;;;;10496306;28;20240;-76
2024/03/06 00:35:52;;;;;;;0.57;0.57;;;8.80;99.90;;;;;;10492920;28;20274;-75
2024/03/06 00:40:57;;;;;;;0.60;0.60;;;8.90;99.90;;;;;;10496699;28;20223;-75
2024/03/06 00:46:00;;;;;;;0.50;0.50;;;8.80;99.90;;;;;;10518808;28;20214;-76
2024/03/06 00:51:02;;;;;;;0.50;0.50;;;8.90;99.90;;;;;;10533343;28;20712;-75
2024/03/06 00:56:07;;;;;;;0.50;0.50;;;8.90;99.90;;;;;;10512389;28;20208;-76
2024/03/06 01:01:10;;;;;;;0.50;0.50;;;8.80;99.90;;;;;;10496310;28;20235;-75
2024/03/06 01:06:12;;;;;;;0.60;0.60;;;8.60;99.90;;;;;;10515916;28;20747;-74
2024/03/06 01:11:16;;;;;;;0.50;0.50;;;8.50;99.90;;;;;;10525501;28;20228;-75
2024/03/06 01:16:18;;;;;;;0.50;0.50;;;8.50;99.90;;;;;;10517619;28;20220;-75
2024/03/06 01:21:21;;;;;;;0.50;0.50;;;8.40;99.90;;;;;;10527647;28;20223;-75
2024/03/06 01:26:24;;;;;;;0.50;0.50;;;8.50;99.90;;;;;;10511319;28;20220;-76
2024/03/06 01:31:27;;;;;;;0.60;0.60;;;8.50;99.90;;;;;;10500500;28;20192;-75
2024/03/06 01:36:29;;;;;;;0.50;0.50;;;8.50;99.90;;;;;;10512752;28;20227;-74
2024/03/06 01:41:33;;;;;;;0.60;0.60;;;8.50;99.90;;;;;;10524400;28;20219;-75
2024/03/06 01:46:35;;;;;;;0.60;0.60;;;8.50;99.90;;;;;;10513393;28;20216;-75
2024/03/06 01:51:38;;;;;;;0.50;0.50;;;8.50;99.90;;;;;;10502260;28;20193;-75
2024/03/06 01:56:46;;;;;;;0.50;0.50;;;8.50;99.90;;;;;;10510880;28;20261;-75
2024/03/06 02:01:48;;;;;;;0.60;0.60;;;8.50;99.90;;;;;;10517912;28;20700;-74
2024/03/06 02:06:51;;;;;;;0.50;0.50;;;8.50;99.90;;;;;;10512150;28;20633;-75
2024/03/06 02:11:55;;;;;;;0.50;0.50;;;8.60;99.90;;;;;;10504147;28;20208;-74
2024/03/06 02:16:57;;;;;;;0.50;0.50;;;8.60;99.90;;;;;;10504274;28;20235;-75
2024/03/06 02:22:02;;;;;;;0.70;0.70;;;8.60;99.90;;;;;;10500184;28;20226;-75
2024/03/06 02:27:05;;;;;;;0.50;0.50;;;8.50;99.90;;;;;;10512217;28;20220;-75
2024/03/06 02:32:08;;;;;;;0.60;0.60;;;8.50;99.90;;;;;;10488315;28;20196;-76
2024/03/06 02:37:12;;;;;;;0.60;0.60;;;8.60;99.90;;;;;;10508065;28;20696;-75
2024/03/06 02:42:14;;;;;;;0.70;0.70;;;8.60;99.90;;;;;;10502183;28;20220;-74
2024/03/06 02:47:16;;;;;;;0.60;0.60;;;8.60;99.90;;;;;;10507645;28;20216;-75
2024/03/06 02:52:20;;;;;;;0.50;0.50;;;8.60;99.90;;;;;;10513989;28;20204;-75
2024/03/06 02:57:22;;;;;;;0.60;0.60;;;8.70;99.90;;;;;;10514262;28;20225;-74
2024/03/06 03:02:25;;;;;;;0.50;0.50;;;8.70;99.90;;;;;;10513921;28;20228;-76
2024/03/06 03:07:28;;;;;;;0.63;0.63;;;8.80;99.90;;;;;;10514994;28;20348;-75
2024/03/06 03:12:31;;;;;;;0.60;0.60;;;8.80;99.90;;;;;;10486368;28;20192;-75
2024/03/06 03:17:33;;;;;;;0.50;0.50;;;8.80;99.90;;;;;;10555655;22;20223;-82
2024/03/06 03:22:38;;;;;;;0.67;0.67;;;8.70;99.90;;;;;;10624146;27;20237;-82
2024/03/06 03:27:41;;;;;;;0.60;0.60;;;8.80;99.90;;;;;;10618330;27;20218;-83
2024/03/06 03:32:43;;;;;;;0.53;0.53;;;8.80;99.90;;;;;;10628113;27;20509;-83
2024/03/06 03:37:47;;;;;;;0.80;0.80;;;8.80;99.90;;;;;;10649831;27;20230;-83
2024/03/06 03:42:49;;;;;;;0.60;0.60;;;8.70;99.90;;;;;;10631328;27;20207;-82
2024/03/06 03:47:51;;;;;;;0.40;0.40;;;8.70;99.90;;;;;;10616283;27;20619;-83
2024/03/06 03:52:57;;;;;;;0.57;0.57;;;8.70;99.90;;;;;;10609150;27;20195;-82
2024/03/06 03:57:59;;;;;;;0.60;0.60;;;8.80;99.90;;;;;;10623403;27;20222;-83
2024/03/06 04:03:02;;;;;;;0.80;0.80;;;8.80;99.90;;;;;;10620649;27;20691;-83
2024/03/06 04:08:06;;;;;;;0.97;0.97;;;8.90;99.90;;;;;;10637380;27;20533;-84
2024/03/06 04:13:08;;;;;;;0.80;0.80;;;8.90;99.90;;;;;;10634783;27;20202;-82
2024/03/06 04:18:11;;;;;;;0.80;0.80;;;8.90;99.90;;;;;;10617241;27;20230;-82
2024/03/06 04:23:14;;;;;;;0.70;0.70;;;8.90;99.90;;;;;;10610053;27;20614;-83
2024/03/06 04:28:17;;;;;;;0.80;0.80;;;8.90;99.90;;;;;;10637866;27;20268;-83
2024/03/06 04:33:20;;;;;;;0.97;0.97;;;8.90;99.90;;;;;;10586447;27;20186;-82
2024/03/06 04:38:23;;;;;;;0.20;0.20;;;8.90;99.90;;;;;;10634732;27;20313;-84
2024/03/06 04:43:26;;;;;;;0.90;0.90;;;8.90;99.90;;;;;;10621224;27;20224;-84
2024/03/06 04:48:28;;;;;;;0.70;0.70;;;8.80;99.90;;;;;;10643473;27;20228;-84
2024/03/06 04:53:32;;;;;;;1.20;1.20;;;8.80;99.90;;;;;;10643684;27;20183;-84
2024/03/06 04:58:34;;;;;;;1.30;1.30;;;8.70;99.90;;;;;;10607419;27;20223;-85
2024/03/06 05:03:38;;;;;;;1.20;1.20;;;8.60;99.90;;;;;;10625924;27;20273;-85
2024/03/06 05:08:41;;;;;;;1.13;1.13;;;8.50;99.90;;;;;;10642350;27;20291;-84
2024/03/06 05:13:44;;;;;;;1.50;1.50;;;8.50;99.90;;;;;;10639047;27;20210;-84
2024/03/06 05:18:46;;;;;;;1.53;1.53;;;8.50;99.90;;;;;;10614178;27;20222;-84
2024/03/06 05:23:50;;;;;;;1.23;1.23;;;8.40;99.90;;;;;;10601051;27;20210;-83
2024/03/06 05:28:52;;;;;;;1.60;1.60;;;8.40;99.90;;;;;;10646903;27;20562;-84
2024/03/06 05:33:54;;;;;;;1.53;1.53;;;8.30;99.90;;;;;;10625389;27;20204;-84
2024/03/06 05:38:58;;;;;;;1.70;1.70;;;8.30;99.90;;;;;;10549310;27;20211;-83
2024/03/06 05:44:00;;;;;;;1.30;1.30;;;8.40;99.90;;;;;;10595719;27;20243;-84
2024/03/06 05:49:04;;;;;;;1.27;1.27;;;8.30;99.90;;;;;;10625302;27;20512;-84
2024/03/06 05:54:09;;;;;;;1.37;1.37;;;8.30;99.90;;;;;;10613546;27;20199;-84
2024/03/06 05:59:11;;;;;;;1.20;1.20;;;8.40;99.90;;;;;;10578893;27;20608;-83
2024/03/06 06:04:14;;;;;;;2.20;2.20;;;8.40;99.90;;;;;;10586219;27;20679;-83
2024/03/06 06:09:18;;;;;;;3.00;3.00;;;8.40;99.90;;;;;;10609011;27;20207;-83
2024/03/06 06:14:21;;;;;;;3.20;3.20;;;8.40;99.90;;;;;;10554034;27;20194;-83
2024/03/06 06:19:24;;;;;;;2.17;2.17;;;8.40;99.90;;;;;;10621601;27;20229;-83
2024/03/06 06:24:28;;;;;;;3.20;3.20;;;8.30;99.90;;;;;;10559995;27;20202;-83
2024/03/06 06:29:30;;;;;;;3.20;3.20;;;8.40;99.90;;;;;;10617995;27;20214;-83
2024/03/06 06:34:34;;;;;;;3.97;3.97;;;8.40;99.90;;;;;;10590778;27;20694;-83
2024/03/06 06:39:38;;;;;;;3.80;3.80;;;8.40;99.90;;;;;;10572602;27;20223;-82
2024/03/06 06:44:41;;;;;;;4.00;4.00;;;8.40;99.90;;;;;;10589133;27;20604;-83
2024/03/06 06:49:44;;;;;;;4.30;4.30;;;8.40;99.90;;;;;;10617205;27;20198;-83
2024/03/06 06:54:49;;;;;;;3.67;3.67;;;8.40;99.90;;;;;;10613867;28;20187;-83
2024/03/06 06:59:52;;;;;;;3.90;3.90;;;8.50;99.90;;;;;;10584154;28;20847;-83
2024/03/06 07:04:55;;;;;;;4.50;4.50;;;8.50;99.90;;;;;;10579274;28;20655;-83
2024/03/06 07:09:58;;;;;;;3.80;3.80;;;8.50;99.90;;;;;;10617002;28;20620;-83
2024/03/06 07:15:02;;;;;;;3.40;3.40;;;8.50;99.90;;;;;;10620667;28;20661;-83
2024/03/06 07:20:08;;;;;;;3.80;3.80;;;8.50;99.90;;;;;;10586921;28;20566;-83
2024/03/06 07:25:12;;;;;;;3.80;3.80;;;8.50;99.90;;;;;;10580915;28;20225;-84
2024/03/06 07:30:15;;;;;;;3.87;3.87;;;8.50;99.90;;;;;;10594505;28;20585;-83
2024/03/06 07:35:17;;;;;;;2.93;2.93;;;8.60;99.90;;;;;;10619603;28;20244;-83
2024/03/06 07:40:21;;;;;;;3.60;3.60;;;8.60;99.90;;;;;;10586102;28;20226;-83
2024/03/06 07:45:23;;;;;;;4.13;4.13;;;8.60;99.90;;;;;;10579225;27;20567;-83
2024/03/06 07:50:27;;;;;;;2.70;2.70;;;8.60;99.90;;;;;;10617026;27;20215;-83
2024/03/06 07:55:30;;;;;;;4.10;4.10;;;8.60;99.90;;;;;;10624849;27;20406;-82
2024/03/06 08:00:33;;;;;;;3.80;3.80;;;8.50;99.90;;;;;;10600139;27;20636;-83
2024/03/06 08:05:35;;;;;;;3.90;3.90;;;8.50;99.90;;;;;;10584972;27;20203;-83
2024/03/06 08:10:39;;;;;;;3.83;3.83;;;8.50;99.90;;;;;;10609615;27;20207;-84
2024/03/06 08:15:44;;;;;;;3.30;3.30;;;8.60;99.90;;;;;;10626865;27;20648;-84
2024/03/06 08:20:46;;;;;;;3.10;3.10;;;8.60;99.90;;;;;;10584197;27;20625;-83
2024/03/06 08:25:50;;;;;;;3.00;3.00;;;8.70;99.90;;;;;;10585853;28;20190;-83
2024/03/06 08:30:53;;;;;;;2.60;2.60;;;8.70;99.90;;;;;;10606375;27;20210;-83
2024/03/06 08:35:55;;;;;;;2.53;2.53;;;8.70;99.90;;;;;;10627904;27;20216;-83
2024/03/06 08:40:59;;;;;;;2.10;2.10;;;8.70;99.90;;;;;;10582367;27;20255;-83
2024/03/06 08:46:01;;;;;;;1.10;1.10;;;8.70;99.90;;;;;;10626059;27;20807;-84
2024/03/06 08:51:10;;;;;;;2.30;2.30;;;8.80;99.90;;;;;;10604090;27;20214;-82
2024/03/06 08:56:14;;;;;;;2.10;2.10;;;8.90;99.90;;;;;;10539893;28;20199;-83
2024/03/06 09:01:17;;;;;;;1.73;1.73;;;8.90;99.90;;;;;;10579575;27;20437;-83
2024/03/06 09:06:19;;;;;;;1.40;1.40;;;8.90;99.90;;;;;;10584969;27;20199;-83
2024/03/06 09:11:23;;;;;;;1.70;1.70;;;9.00;99.90;;;;;;10591119;27;20191;-83
2024/03/06 09:16:25;;;;;;;1.30;1.30;;;9.00;99.90;;;;;;10587679;27;20244;-84
2024/03/06 09:21:28;;;;;;;1.40;1.40;;;9.10;99.90;;;;;;10602372;22;20226;-80
2024/03/06 09:26:32;;;;;;;1.03;1.03;;;9.10;99.90;;;;;;10546877;28;20199;-80
2024/03/06 09:31:35;;;;;;;1.10;1.10;;;9.20;99.90;;;;;;10560993;28;20212;-79
2024/03/06 09:36:37;;;;;;;1.00;1.00;;;9.20;99.90;;;;;;10587868;28;20195;-78
2024/03/06 09:41:41;;;;;;;0.90;0.90;;;9.20;99.90;;;;;;10565788;28;20689;-78
2024/03/06 09:46:45;;;;;;;1.00;1.00;;;9.20;99.90;;;;;;10542509;28;20257;-78
2024/03/06 09:51:49;;;;;;;1.23;1.23;;;9.30;99.90;;;;;;10556897;28;20645;-79
2024/03/06 09:56:55;;;;;;;0.70;0.70;;;9.20;99.90;;;;;;10582913;28;20661;-79
2024/03/06 10:02:02;;;;;;;0.50;0.50;;;9.20;99.90;;;;;;10567279;28;20253;-78
2024/03/06 10:07:07;;;;;;;0.83;0.83;;;9.20;99.90;;;;;;10540345;28;20554;-80
2024/03/06 10:12:13;;;;;;;0.50;0.50;;;9.20;99.90;;;;;;10551780;28;20738;-79
2024/03/06 10:17:22;;;;;;;0.60;0.60;;;9.30;99.90;;;;;;10577915;28;20200;-78
2024/03/06 10:22:25;;;;;;;0.50;0.50;;;9.40;99.90;;;;;;10567375;28;20214;-77
2024/03/06 10:27:29;;;;;;;0.53;0.53;;;9.40;99.90;;;;;;10536524;28;20223;-79
2024/03/06 10:32:31;;;;;;;0.50;0.50;;;9.40;99.90;;;;;;10547648;28;20188;-78
2024/03/06 10:37:34;;;;;;;0.50;0.50;;;9.40;99.90;;;;;;10543866;28;20216;-78
2024/03/06 10:42:40;;;;;;;0.70;0.70;;;9.40;99.90;;;;;;10527130;28;20215;-79
2024/03/06 10:47:48;;;;;;;0.60;0.60;;;9.50;99.90;;;;;;10575459;28;20215;-80
2024/03/06 10:52:55;;;;;;;0.50;0.50;;;9.60;99.90;;;;;;10571293;28;20192;-80
2024/03/06 10:58:00;;;;;;;0.23;0.23;;;9.70;99.90;;;;;;10539484;28;20219;-79
2024/03/06 11:03:07;;;;;;;0.60;0.60;;;9.70;99.90;;;;;;10542777;28;20635;-78
2024/03/06 11:08:11;;;;;;;0.60;0.60;;;9.60;99.90;;;;;;10578129;28;20219;-79
2024/03/06 11:13:25;;;;;;;0.70;0.70;;;9.60;99.90;;;;;;10573176;28;20191;-79
2024/03/06 11:18:44;;;;;;;0.70;0.70;;;9.60;99.90;;;;;;10534251;28;20689;-79
2024/03/06 11:24:15;;;;;;;1.00;1.00;;;9.60;99.90;;;;;;10580847;28;20442;-80
2024/03/06 11:29:20;;;;;;;1.07;1.07;;;9.60;99.90;;;;;;10550317;28;20207;-78
2024/03/06 11:34:24;;;;;;;1.30;1.30;;;9.50;99.90;;;;;;10552350;28;20221;-79
2024/03/06 11:39:31;;;;;;;1.60;1.60;;;9.50;99.90;;;;;;10587344;28;20265;-79
2024/03/06 11:44:36;;;;;;;1.83;1.83;;;9.40;99.90;;;;;;10583467;28;20207;-78
2024/03/06 11:49:38;;;;;;;2.00;2.00;;;9.30;99.90;;;;;;10546487;28;20215;-78
2024/03/06 11:54:41;;;;;;;2.20;2.20;;;9.20;99.90;;;;;;10533762;28;20190;-80
2024/03/06 11:59:44;;;;;;;2.50;2.50;;;9.20;99.90;;;;;;10586980;28;20215;-79
2024/03/06 12:04:47;;;;;;;3.03;3.03;;;9.10;99.90;;;;;;10584688;28;20261;-80
2024/03/06 12:09:49;;;;;;;2.70;2.70;;;9.10;99.90;;;;;;10545901;28;20215;-79
2024/03/06 12:15:00;;;;;;;2.20;2.20;;;9.10;99.90;;;;;;10546749;28;20605;-80
2024/03/06 12:20:05;;;;;;;2.17;2.17;;;9.20;99.90;;;;;;10582212;28;20222;-79
2024/03/06 12:25:07;;;;;;;1.80;1.80;;;9.10;99.90;;;;;;10582481;28;20215;-78
2024/03/06 12:30:12;;;;;;;2.87;2.87;;;9.10;99.90;;;;;;10547434;28;20257;-80
2024/03/06 12:35:25;;;;;;;2.30;2.30;;;9.10;99.90;;;;;;10550141;28;20200;-78
2024/03/06 12:40:28;;;;;;;2.70;2.70;;;9.10;99.90;;;;;;10549467;28;20212;-80
2024/03/06 12:45:32;;;;;;;2.37;2.37;;;9.10;99.90;;;;;;10547058;28;20227;-80
2024/03/06 12:50:34;;;;;;;2.50;2.50;;;9.10;99.90;;;;;;10582453;28;20219;-80
2024/03/06 12:55:36;;;;;;;2.40;2.40;;;9.10;99.90;;;;;;10581313;28;20265;-81
2024/03/06 13:00:40;;;;;;;2.83;2.83;;;9.10;99.90;;;;;;10550263;28;20664;-78
2024/03/06 13:05:43;;;;;;;2.73;2.73;;;9.20;99.90;;;;;;10541540;28;20743;-80
2024/03/06 13:10:45;;;;;;;3.30;3.30;;;9.20;99.90;;;;;;10569434;28;20204;-80
2024/03/06 13:15:49;;;;;;;2.60;2.60;;;9.20;99.90;;;;;;10503667;28;20213;-78
2024/03/06 13:20:51;;;;;;;2.40;2.40;;;9.20;99.90;;;;;;10576774;28;20284;-78
2024/03/06 13:25:54;;;;;;;2.10;2.10;;;9.20;99.90;;;;;;10581943;28;20222;-79
2024/03/06 13:30:57;;;;;;;2.23;2.23;;;9.20;99.90;;;;;;10535281;28;20231;-78
2024/03/06 13:36:00;;;;;;;2.40;2.40;;;9.20;99.90;;;;;;10528960;28;20317;-79
2024/03/06 13:41:03;;;;;;;2.40;2.40;;;9.20;99.90;;;;;;10575346;28;20226;-79
2024/03/06 13:46:07;;;;;;;2.60;2.60;;;9.20;99.90;;;;;;10562277;28;20316;-79
2024/03/06 13:51:09;;;;;;;2.50;2.50;;;9.20;99.90;;;;;;10554554;28;20268;-79
2024/03/06 13:56:12;;;;;;;2.67;2.67;;;9.30;99.90;;;;;;10538453;28;20205;-79
2024/03/06 14:01:16;;;;;;;2.63;2.63;;;9.20;99.90;;;;;;10524838;28;20263;-79
2024/03/06 14:06:18;;;;;;;2.50;2.50;;;9.30;99.90;;;;;;10493151;28;20250;-78
2024/03/06 14:11:20;;;;;;;2.67;2.67;;;9.30;99.90;;;;;;10545775;28;20258;-78
2024/03/06 14:16:24;;;;;;;2.30;2.30;;;9.30;99.90;;;;;;10549278;28;20196;-79
2024/03/06 14:21:28;;;;;;;2.37;2.37;;;9.30;99.90;;;;;;10507852;28;20285;-77
2024/03/06 14:26:31;;;;;;;2.70;2.70;;;9.30;99.90;;;;;;10497986;28;20204;-78
2024/03/06 14:31:34;;;;;;;3.37;3.37;;;9.30;99.90;;;;;;10524871;28;20755;-80
2024/03/06 14:36:37;;;;;;;3.60;3.60;;;9.30;99.90;;;;;;10536621;28;20690;-78
2024/03/06 14:41:42;;;;;;;3.50;3.50;;;9.20;99.90;;;;;;10558302;28;20226;-81
2024/03/06 14:46:47;;;;;;;2.20;2.20;;;9.20;99.90;;;;;;10552433;28;20656;-81
2024/03/06 14:51:49;;;;;;;3.20;3.20;;;9.20;99.90;;;;;;10539304;28;20216;-80
2024/03/06 14:56:52;;;;;;;3.20;3.20;;;9.20;99.90;;;;;;10575879;28;20191;-80
2024/03/06 15:01:56;;;;;;;3.23;3.23;;;9.20;99.90;;;;;;10559182;28;20218;-81
2024/03/06 15:07:01;;;;;;;2.20;2.20;;;9.20;99.90;;;;;;10521817;28;20245;-80
2024/03/06 15:12:04;;;;;;;3.60;3.60;;;9.30;99.90;;;;;;10552863;28;20248;-79
2024/03/06 15:17:08;;;;;;;2.90;2.90;;;9.30;99.90;;;;;;10540057;28;20681;-80
2024/03/06 15:22:10;;;;;;;2.50;2.50;;;9.20;99.90;;;;;;10632959;22;20222;-79
2024/03/06 15:27:15;;;;;;;2.63;2.63;;;9.20;99.90;;;;;;10579653;28;20535;-79
2024/03/06 15:32:18;;;;;;;3.10;3.10;;;9.20;99.90;;;;;;10548958;28;20226;-78
2024/03/06 15:37:21;;;;;;;3.50;3.50;;;9.30;99.90;;;;;;10568652;28;20237;-78
2024/03/06 15:42:25;;;;;;;2.50;2.50;;;9.30;99.90;;;;;;10558944;28;20223;-77
2024/03/06 15:47:31;;;;;;;3.80;3.80;;;9.30;99.90;;;;;;10536953;28;20208;-78
2024/03/06 15:52:33;;;;;;;3.70;3.70;;;9.30;99.90;;;;;;10557361;28;20200;-78
2024/03/06 15:57:36;;;;;;;3.80;3.80;;;9.20;99.90;;;;;;10557846;28;20245;-79
2024/03/06 16:02:40;;;;;;;1.30;1.30;;;9.20;99.90;;;;;;10535963;28;20697;-79
2024/03/06 16:07:42;;;;;;;4.10;4.10;;;9.20;99.90;;;;;;10561210;28;20204;-77
2024/03/06 16:12:44;;;;;;;3.63;3.63;;;9.20;99.90;;;;;;10548928;28;20203;-79
2024/03/06 16:17:48;;;;;;;4.10;4.10;;;9.20;99.90;;;;;;10540119;28;20207;-78
2024/03/06 16:22:50;;;;;;;3.90;3.90;;;9.20;99.90;;;;;;10541189;28;20598;-76
2024/03/06 16:27:53;;;;;;;2.30;2.30;;;9.20;99.90;;;;;;10554207;28;20211;-78
2024/03/06 16:32:56;;;;;;;4.10;4.10;;;9.20;99.90;;;;;;10560285;27;20204;-78
2024/03/06 16:37:59;;;;;;;4.07;4.07;;;9.20;99.90;;;;;;10571130;28;20248;-79
2024/03/06 16:43:01;;;;;;;3.83;3.83;;;9.20;99.90;;;;;;10546740;28;20578;-78
2024/03/06 16:48:06;;;;;;;4.27;4.27;;;9.20;99.90;;;;;;10559706;28;20220;-78
2024/03/06 16:53:09;;;;;;;4.80;4.80;;;9.20;99.90;;;;;;10571536;28;20588;-76
2024/03/06 16:58:11;;;;;;;4.40;4.40;;;9.20;99.90;;;;;;10577072;28;20215;-79
2024/03/06 17:03:15;;;;;;;2.90;2.90;;;9.20;99.90;;;;;;10537818;28;20268;-77
2024/03/06 17:08:17;;;;;;;4.50;4.50;;;9.20;99.90;;;;;;10567035;28;20240;-79
2024/03/06 17:13:19;;;;;;;4.40;4.40;;;9.20;99.90;;;;;;10547466;28;20253;-79
2024/03/06 17:18:23;;;;;;;4.00;4.00;;;9.20;99.90;;;;;;10540731;28;20701;-78
2024/03/06 17:23:26;;;;;;;4.20;4.20;;;9.30;99.90;;;;;;10543559;28;20685;-78
2024/03/06 17:28:28;;;;;;;1.60;1.60;;;9.30;99.90;;;;;;10571014;28;20218;-78
2024/03/06 17:33:32;;;;;;;3.80;3.80;;;9.30;99.90;;;;;;10571579;28;20602;-77
2024/03/06 17:38:34;;;;;;;4.00;4.00;;;9.20;99.90;;;;;;10538796;28;20227;-78
2024/03/06 17:43:38;;;;;;;4.37;4.37;;;9.20;99.90;;;;;;10551640;28;20219;-77
2024/03/06 17:48:41;;;;;;;3.60;3.60;;;9.30;99.90;;;;;;10550238;28;20223;-77
2024/03/06 17:53:45;;;;;;;4.20;4.20;;;9.30;99.90;;;;;;10551826;28;20204;-77
2024/03/06 17:58:48;;;;;;;3.50;3.50;;;9.30;99.90;;;;;;10552089;28;20243;-77
2024/03/06 18:03:53;;;;;;;3.70;3.70;;;9.30;99.90;;;;;;10555641;28;20227;-76
2024/03/06 18:08:55;;;;;;;4.20;4.20;;;9.20;99.90;;;;;;10567097;28;20276;-77
2024/03/06 18:13:58;;;;;;;4.30;4.30;;;9.20;99.90;;;;;;10563426;28;20210;-80
2024/03/06 18:19:01;;;;;;;4.27;4.27;;;9.20;99.90;;;;;;10555187;28;20272;-77
2024/03/06 18:24:06;;;;;;;4.70;4.70;;;9.20;99.90;;;;;;10565365;28;20234;-77
2024/03/06 18:29:09;;;;;;;4.30;4.30;;;9.20;99.90;;;;;;10549297;28;20222;-77
2024/03/06 18:34:13;;;;;;;4.20;4.20;;;9.20;99.90;;;;;;10550995;28;20200;-77
2024/03/06 18:39:17;;;;;;;3.90;3.90;;;9.20;99.90;;;;;;10559289;28;20703;-77
2024/03/06 18:44:19;;;;;;;4.50;4.50;;;9.20;99.90;;;;;;10559424;28;20214;-79
2024/03/06 18:49:23;;;;;;;4.47;4.47;;;9.20;99.90;;;;;;10562502;28;20684;-78
2024/03/06 18:54:25;;;;;;;4.40;4.40;;;9.20;99.90;;;;;;10566238;28;20244;-77
2024/03/06 18:59:28;;;;;;;4.40;4.40;;;9.10;99.90;;;;;;10566949;28;20216;-78
2024/03/06 19:04:32;;;;;;;4.80;4.80;;;9.10;99.90;;;;;;10548403;28;20273;-76
2024/03/06 19:09:34;;;;;;;4.17;4.17;;;9.10;99.90;;;;;;10573336;28;20219;-77
2024/03/06 19:14:37;;;;;;;3.90;3.90;;;9.10;99.90;;;;;;10566121;28;20249;-77
2024/03/06 19:19:40;;;;;;;3.43;3.43;;;9.10;99.90;;;;;;10567040;28;20243;-77
2024/03/06 19:24:43;;;;;;;4.20;4.20;;;9.10;99.90;;;;;;10550353;28;20245;-76
2024/03/06 19:29:45;;;;;;;4.40;4.40;;;9.20;99.90;;;;;;10552286;28;20219;-78
2024/03/06 19:34:49;;;;;;;4.53;4.53;;;9.20;99.90;;;;;;10539911;28;20192;-76
2024/03/06 19:39:51;;;;;;;3.93;3.93;;;9.30;99.90;;;;;;10550690;28;20264;-77
2024/03/06 19:44:54;;;;;;;4.60;4.60;;;9.30;99.90;;;;;;10560414;28;20276;-77
2024/03/06 19:49:58;;;;;;;4.40;4.40;;;9.30;99.90;;;;;;10556473;28;20238;-76
2024/03/06 19:55:00;;;;;;;3.90;3.90;;;9.40;99.90;;;;;;10560650;28;20206;-77
2024/03/06 20:00:10;;;;;;;4.10;4.10;;;9.30;99.90;;;;;;10576936;28;20237;-76
2024/03/06 20:05:15;;;;;;;4.00;4.00;;;9.30;99.90;;;;;;10545272;28;20633;-77
2024/03/06 20:10:19;;;;;;;4.03;4.03;;;9.30;99.90;;;;;;10554861;28;20285;-76
2024/03/06 20:15:21;;;;;;;4.00;4.00;;;9.30;99.90;;;;;;10562846;28;20248;-77
2024/03/06 20:20:25;;;;;;;3.93;3.93;;;9.30;99.90;;;;;;10565125;28;20231;-77
2024/03/06 20:25:27;;;;;;;4.00;4.00;;;9.30;99.90;;;;;;10558777;28;20294;-76
2024/03/06 20:30:29;;;;;;;3.60;3.60;;;9.40;99.90;;;;;;10554412;27;20227;-76
2024/03/06 20:35:36;;;;;;;3.60;3.60;;;9.40;99.90;;;;;;10556094;28;20719;-75
2024/03/06 20:40:39;;;;;;;3.90;3.90;;;9.40;99.90;;;;;;10565185;28;20230;-76
2024/03/06 20:45:43;;;;;;;3.73;3.73;;;9.40;99.90;;;;;;10553550;28;20222;-76
2024/03/06 20:50:47;;;;;;;3.73;3.73;;;9.40;99.90;;;;;;10555596;28;20228;-76
2024/03/06 20:55:50;;;;;;;3.00;3.00;;;9.40;99.90;;;;;;10552461;28;20192;-77
2024/03/06 21:00:55;;;;;;;3.20;3.20;;;9.40;99.90;;;;;;10541915;28;20461;-76
2024/03/06 21:05:58;;;;;;;2.80;2.80;;;9.40;99.90;;;;;;10551623;28;20288;-76
2024/03/06 21:11:03;;;;;;;3.03;3.03;;;9.40;99.90;;;;;;10550370;28;20689;-75
2024/03/06 21:16:06;;;;;;;2.50;2.50;;;9.40;99.90;;;;;;10544641;28;20253;-76
2024/03/06 21:21:09;;;;;;;2.30;2.30;;;9.50;99.90;;;;;;10555123;28;20572;-76
2024/03/06 21:26:12;;;;;;;2.87;2.87;;;9.40;99.90;;;;;;10600902;22;20284;-78
2024/03/06 21:31:14;;;;;;;1.87;1.87;;;9.40;99.90;;;;;;10584716;28;20676;-82
2024/03/06 21:36:18;;;;;;;2.10;2.10;;;9.40;99.90;;;;;;10591047;28;20278;-81
2024/03/06 21:41:20;;;;;;;2.50;2.50;;;9.40;99.90;;;;;;10542676;28;20606;-81
2024/03/06 21:46:23;;;;;;;2.17;2.17;;;9.30;99.90;;;;;;10549671;28;20207;-79
2024/03/06 21:51:27;;;;;;;2.33;2.33;;;9.30;99.90;;;;;;10559864;28;20230;-81
2024/03/06 21:56:29;;;;;;;2.40;2.40;;;9.30;99.90;;;;;;10563285;28;20241;-80
2024/03/06 22:01:32;;;;;;;2.63;2.63;;;9.30;99.90;;;;;;10548716;28;20192;-80
2024/03/06 22:06:37;;;;;;;2.40;2.40;;;9.30;99.90;;;;;;10552210;28;20214;-80
2024/03/06 22:11:43;;;;;;;2.07;2.07;;;9.30;99.90;;;;;;10553461;28;20218;-80
2024/03/06 22:16:46;;;;;;;2.33;2.33;;;9.30;99.90;;;;;;10541139;28;20316;-81
2024/03/06 22:21:49;;;;;;;2.10;2.10;;;9.30;99.90;;;;;;10548319;28;20199;-84
2024/03/06 22:26:52;;;;;;;1.90;1.90;;;9.30;99.90;;;;;;10532427;28;20674;-80
2024/03/06 22:31:54;;;;;;;2.40;2.40;;;9.30;99.90;;;;;;10556742;28;20214;-79
2024/03/06 22:36:58;;;;;;;2.00;2.00;;;9.30;99.90;;;;;;10550764;28;20224;-79
2024/03/06 22:42:00;;;;;;;2.37;2.37;;;9.30;99.90;;;;;;10512789;28;20200;-80
2024/03/06 22:47:03;;;;;;;1.70;1.70;;;9.30;99.90;;;;;;10544131;28;20227;-79
2024/03/06 22:52:07;;;;;;;1.97;1.97;;;9.40;99.90;;;;;;10552082;28;20201;-81
2024/03/06 22:57:09;;;;;;;1.90;1.90;;;9.40;99.90;;;;;;10555532;28;20273;-82
2024/03/06 23:02:12;;;;;;;1.50;1.50;;;9.30;99.90;;;;;;10545262;28;20200;-81
2024/03/06 23:07:15;;;;;;;1.90;1.90;;;9.40;99.90;;;;;;10532861;28;20224;-81
2024/03/06 23:12:19;;;;;;;2.00;2.00;;;9.30;99.90;;;;;;10556090;28;20199;-81
2024/03/06 23:17:21;;;;;;;1.70;1.70;;;9.30;99.90;;;;;;10549386;28;20233;-83
2024/03/06 23:22:26;;;;;;;1.60;1.60;;;9.30;99.90;;;;;;10552659;28;20278;-82
2024/03/06 23:27:29;;;;;;;2.30;2.30;;;9.30;99.90;;;;;;10546156;28;20314;-79
2024/03/06 23:32:31;;;;;;;1.67;1.67;;;9.30;99.90;;;;;;10549906;28;20265;-81
2024/03/06 23:37:35;;;;;;;1.70;1.70;;;9.30;99.90;;;;;;10544401;28;20220;-80
2024/03/06 23:42:38;;;;;;;1.50;1.50;;;9.30;99.90;;;;;;10550999;28;20206;-80
2024/03/06 23:47:41;;;;;;;1.57;1.57;;;9.20;99.90;;;;;;10560027;28;20227;-81
2024/03/06 23:52:45;;;;;;;1.40;1.40;;;9.20;99.90;;;;;;10571971;28;20267;-81
2024/03/06 23:57:47;;;;;;;1.80;1.80;;;9.20;99.90;;;;;;10558004;28;20273;-81
